createdAt,value
2018-12-14T00:00:28.283Z,83.10
2018-12-14T00:02:57.853Z,83.30
2018-12-14T00:05:27.450Z,82.60
2018-12-14T00:07:55.120Z,83.10
2018-12-14T00:10:22.623Z,82.80
2018-12-14T00:12:50.154Z,82.80
2018-12-14T00:15:17.897Z,82.70
2018-12-14T00:17:45.594Z,83.10
2018-12-14T00:20:13.162Z,83.10
2018-12-14T00:22:40.699Z,83.20
2018-12-14T00:25:08.388Z,82.90
2018-12-14T00:27:35.974Z,83.10
2018-12-14T00:30:04.991Z,82.60
2018-12-14T00:32:32.671Z,83.40
2018-12-14T00:35:00.198Z,83.20
2018-12-14T00:37:27.744Z,83.40
2018-12-14T00:39:55.245Z,82.80
2018-12-14T00:42:22.749Z,82.90
2018-12-14T00:44:50.270Z,82.90
2018-12-14T00:47:17.815Z,82.90
2018-12-14T00:49:45.328Z,82.90
2018-12-14T00:52:12.826Z,82.70
2018-12-14T00:54:40.397Z,83.20
2018-12-14T00:57:07.912Z,82.80
2018-12-14T00:59:35.454Z,82.70
2018-12-14T01:02:05.189Z,81.90
2018-12-14T01:04:32.700Z,81.50
2018-12-14T01:07:00.260Z,82.10
2018-12-14T01:09:27.831Z,81.50
2018-12-14T01:11:58.181Z,81.50
2018-12-14T01:14:24.953Z,80.60
2018-12-14T01:16:52.482Z,81.40
2018-12-14T01:19:20.070Z,81.50
2018-12-14T01:21:47.622Z,80.70
2018-12-14T01:24:15.187Z,80.90
2018-12-14T01:26:43.665Z,80.80
2018-12-14T01:29:11.194Z,81.00
2018-12-14T01:31:38.778Z,80.90
2018-12-14T01:34:06.361Z,81.00
2018-12-14T01:36:33.900Z,80.90
2018-12-14T01:39:01.378Z,81.00
2018-12-14T01:41:30.963Z,80.70
2018-12-14T01:43:58.443Z,80.90
2018-12-14T01:46:26.167Z,80.80
2018-12-14T01:48:53.693Z,80.80
2018-12-14T01:51:21.239Z,80.30
2018-12-14T01:53:48.838Z,79.80
2018-12-14T01:56:16.346Z,79.80
2018-12-14T01:58:44.076Z,80.00
2018-12-14T02:01:11.542Z,80.20
2018-12-14T02:03:39.428Z,79.50
2018-12-14T02:06:06.994Z,80.00
2018-12-14T02:08:34.571Z,80.00
2018-12-14T02:11:02.134Z,80.30
2018-12-14T02:13:29.835Z,80.00
2018-12-14T02:15:57.368Z,79.70
2018-12-14T02:18:24.924Z,80.40
2018-12-14T02:20:52.538Z,80.10
2018-12-14T02:23:20.036Z,80.60
2018-12-14T02:25:47.557Z,79.80
2018-12-14T02:28:15.133Z,80.20
2018-12-14T02:30:44.313Z,79.80
2018-12-14T02:33:11.995Z,79.70
2018-12-14T02:35:39.600Z,79.80
2018-12-14T02:38:07.464Z,80.00
2018-12-14T02:40:35.003Z,79.70
2018-12-14T02:43:02.693Z,79.80
2018-12-14T02:45:30.319Z,79.30
2018-12-14T02:47:57.905Z,79.90
2018-12-14T02:50:25.469Z,79.40
2018-12-14T02:52:52.993Z,79.50
2018-12-14T02:55:20.530Z,79.60
2018-12-14T02:57:48.129Z,79.10
2018-12-14T03:00:15.832Z,79.20
2018-12-14T03:02:43.631Z,79.50
2018-12-14T03:05:11.376Z,79.50
2018-12-14T03:10:39.401Z,79.70
2018-12-14T03:13:06.949Z,79.30
2018-12-14T03:15:34.665Z,78.90
2018-12-14T03:18:02.436Z,79.40
2018-12-14T03:20:29.934Z,79.80
2018-12-14T03:22:57.677Z,80.00
2018-12-14T03:25:25.385Z,79.30
2018-12-14T03:27:52.858Z,79.50
2018-12-14T03:30:20.410Z,80.10
2018-12-14T03:32:47.984Z,79.00
2018-12-14T03:35:15.632Z,79.10
2018-12-14T03:37:43.327Z,79.30
2018-12-14T03:40:10.988Z,79.20
2018-12-14T03:42:38.634Z,79.20
2018-12-14T03:45:06.459Z,79.50
2018-12-14T03:47:34.111Z,79.00
2018-12-14T03:50:01.896Z,79.50
2018-12-14T03:52:29.709Z,79.70
2018-12-14T03:54:57.488Z,79.40
2018-12-14T03:57:25.039Z,78.70
2018-12-14T03:59:52.608Z,78.30
2018-12-14T04:02:20.576Z,78.60
2018-12-14T04:04:48.270Z,78.70
2018-12-14T04:07:15.980Z,78.70
2018-12-14T04:09:43.622Z,78.80
2018-12-14T04:12:11.138Z,78.60
2018-12-14T04:14:38.747Z,78.80
2018-12-14T04:17:06.580Z,79.10
2018-12-14T04:19:34.215Z,78.80
2018-12-14T04:22:01.789Z,78.60
2018-12-14T04:24:29.497Z,79.10
2018-12-14T04:26:57.056Z,78.80
2018-12-14T04:29:24.592Z,78.30
2018-12-14T04:31:52.084Z,78.10
2018-12-14T04:34:19.808Z,78.40
2018-12-14T04:36:47.492Z,78.10
2018-12-14T04:39:17.075Z,78.70
2018-12-14T04:41:44.683Z,78.20
2018-12-14T04:44:12.438Z,78.20
2018-12-14T04:46:40.025Z,78.20
2018-12-14T04:49:07.594Z,78.40
2018-12-14T04:51:35.172Z,78.40
2018-12-14T04:54:02.758Z,77.80
2018-12-14T04:56:30.296Z,78.20
2018-12-14T04:58:57.825Z,78.80
2018-12-14T05:01:25.454Z,78.60
2018-12-14T05:03:53.059Z,78.70
2018-12-14T05:06:20.592Z,78.60
2018-12-14T05:08:48.230Z,78.60
2018-12-14T05:11:15.841Z,78.80
2018-12-14T05:13:43.401Z,78.40
2018-12-14T05:16:11.149Z,78.70
2018-12-14T05:18:38.715Z,78.30
2018-12-14T05:21:06.319Z,78.10
2018-12-14T05:23:33.890Z,78.30
2018-12-14T05:26:01.514Z,79.10
2018-12-14T05:28:29.054Z,78.50
2018-12-14T05:30:56.723Z,78.70
2018-12-14T05:33:24.259Z,79.00
2018-12-14T05:35:51.742Z,78.90
2018-12-14T05:38:19.343Z,79.10
2018-12-14T05:40:46.898Z,78.50
2018-12-14T05:43:14.790Z,78.40
2018-12-14T05:45:42.472Z,78.70
2018-12-14T05:48:10.032Z,78.40
2018-12-14T05:50:38.133Z,79.30
2018-12-14T05:53:05.818Z,78.50
2018-12-14T05:55:33.429Z,77.80
2018-12-14T05:58:01.032Z,78.20
2018-12-14T06:00:28.560Z,78.80
2018-12-14T06:02:56.254Z,78.50
2018-12-14T06:05:23.870Z,78.00
2018-12-14T06:07:51.416Z,78.50
2018-12-14T06:10:19.305Z,77.60
2018-12-14T06:12:46.880Z,77.70
2018-12-14T06:15:14.540Z,78.50
2018-12-14T06:17:42.115Z,77.90
2018-12-14T06:20:09.957Z,78.20
2018-12-14T06:22:37.729Z,78.60
2018-12-14T06:25:05.595Z,78.60
2018-12-14T06:27:33.271Z,78.40
2018-12-14T06:30:00.876Z,78.00
2018-12-14T06:32:28.987Z,78.80
2018-12-14T06:34:56.615Z,78.20
2018-12-14T06:37:24.555Z,78.90
2018-12-14T06:39:52.242Z,78.90
2018-12-14T06:42:20.238Z,78.70
2018-12-14T06:44:48.175Z,78.10
2018-12-14T06:47:15.798Z,78.50
2018-12-14T06:49:43.413Z,78.40
2018-12-14T06:52:10.974Z,78.70
2018-12-14T06:54:38.550Z,78.40
2018-12-14T06:57:06.291Z,77.80
2018-12-14T06:59:33.966Z,78.20
2018-12-14T07:02:01.752Z,79.20
2018-12-14T07:04:31.414Z,79.00
2018-12-14T07:07:04.115Z,80.20
2018-12-14T07:09:28.453Z,80.20
2018-12-14T07:11:56.061Z,80.20
2018-12-14T07:14:23.690Z,80.50
2018-12-14T07:16:51.233Z,80.40
2018-12-14T07:19:18.786Z,80.30
2018-12-14T07:21:46.345Z,80.20
2018-12-14T07:24:13.987Z,79.40
2018-12-14T07:26:41.953Z,80.10
2018-12-14T07:29:09.463Z,79.90
2018-12-14T07:31:37.196Z,80.10
2018-12-14T07:34:04.682Z,79.70
2018-12-14T07:36:32.451Z,79.30
2018-12-14T07:39:00.123Z,80.10
2018-12-14T07:41:28.290Z,80.00
2018-12-14T07:43:56.387Z,79.60
2018-12-14T07:46:24.050Z,79.60
2018-12-14T07:48:51.677Z,79.90
2018-12-14T07:51:19.339Z,79.80
2018-12-14T07:53:46.959Z,79.80
2018-12-14T07:56:14.640Z,79.00
2018-12-14T07:58:42.518Z,79.50
2018-12-14T08:01:10.247Z,79.80
2018-12-14T08:03:37.962Z,79.20
2018-12-14T08:06:05.548Z,79.30
2018-12-14T08:08:33.373Z,79.40
2018-12-14T08:11:01.034Z,79.50
2018-12-14T08:13:34.661Z,78.90
2018-12-14T08:15:59.855Z,79.20
2018-12-14T08:18:27.472Z,78.50
2018-12-14T08:20:55.015Z,78.50
2018-12-14T08:23:22.732Z,79.10
2018-12-14T08:25:50.321Z,79.50
2018-12-14T08:28:17.838Z,79.90
2018-12-14T08:30:45.438Z,78.60
2018-12-14T08:33:13.094Z,78.70
2018-12-14T08:35:40.611Z,79.00
2018-12-14T08:38:08.325Z,78.70
2018-12-14T08:40:35.810Z,78.60
2018-12-14T08:43:03.379Z,78.90
2018-12-14T08:45:31.051Z,78.20
2018-12-14T08:47:59.050Z,79.00
2018-12-14T08:50:27.130Z,79.50
2018-12-14T08:52:54.791Z,79.00
2018-12-14T08:55:22.385Z,79.60
2018-12-14T08:57:49.986Z,79.60
2018-12-14T09:00:17.592Z,79.70
2018-12-14T09:02:45.272Z,79.60
2018-12-14T09:05:12.959Z,78.90
2018-12-14T09:07:40.607Z,79.40
2018-12-14T09:10:08.500Z,78.60
2018-12-14T09:12:36.161Z,79.80
2018-12-14T09:15:03.965Z,79.40
2018-12-14T09:17:38.925Z,79.00
2018-12-14T09:20:06.856Z,79.20
2018-12-14T09:22:34.518Z,78.40
2018-12-14T09:25:02.186Z,78.70
2018-12-14T09:27:29.722Z,79.40
2018-12-14T09:29:57.249Z,78.90
2018-12-14T09:32:24.777Z,78.10
2018-12-14T09:34:52.510Z,78.30
2018-12-14T09:37:20.328Z,78.10
2018-12-14T09:39:47.888Z,78.90
2018-12-14T09:42:15.638Z,78.40
2018-12-14T09:44:43.220Z,78.20
2018-12-14T09:47:10.689Z,78.40
2018-12-14T09:49:38.226Z,78.50
2018-12-14T09:52:05.853Z,78.20
2018-12-14T09:54:33.510Z,78.30
2018-12-14T09:57:01.164Z,78.50
2018-12-14T09:59:28.734Z,78.70
2018-12-14T10:01:56.277Z,79.50
2018-12-14T10:04:23.828Z,79.30
2018-12-14T10:06:51.571Z,79.50
2018-12-14T10:09:19.145Z,78.50
2018-12-14T10:11:48.028Z,78.70
2018-12-14T10:14:15.777Z,78.10
2018-12-14T10:16:43.486Z,78.10
2018-12-14T10:19:11.422Z,77.60
2018-12-14T10:21:39.422Z,77.60
2018-12-14T10:24:07.056Z,77.40
2018-12-14T10:26:34.949Z,77.70
2018-12-14T10:29:02.701Z,77.80
2018-12-14T10:31:30.338Z,77.90
2018-12-14T10:33:58.092Z,78.10
2018-12-14T10:36:26.340Z,77.20
2018-12-14T10:38:54.650Z,77.10
2018-12-14T10:41:22.207Z,77.10
2018-12-14T10:43:49.942Z,77.80
2018-12-14T10:46:17.777Z,78.00
2018-12-14T10:48:45.502Z,78.20
2018-12-14T10:51:13.041Z,78.40
2018-12-14T10:53:41.847Z,78.80
2018-12-14T10:56:09.388Z,78.60
2018-12-14T10:58:36.941Z,79.30
2018-12-14T11:01:14.284Z,79.00
2018-12-14T11:03:40.094Z,79.00
2018-12-14T11:06:07.606Z,78.90
2018-12-14T11:08:35.365Z,78.90
2018-12-14T11:11:02.871Z,78.30
2018-12-14T11:13:30.444Z,78.10
2018-12-14T11:15:57.991Z,77.70
2018-12-14T11:18:25.539Z,78.40
2018-12-14T11:20:53.127Z,78.00
2018-12-14T11:23:20.949Z,77.60
2018-12-14T11:25:48.429Z,77.50
2018-12-14T11:28:16.115Z,78.10
2018-12-14T11:30:43.734Z,77.10
2018-12-14T11:33:11.280Z,77.10
2018-12-14T11:35:39.070Z,77.00
2018-12-14T11:38:07.743Z,77.60
2018-12-14T11:40:35.246Z,77.70
2018-12-14T11:43:02.763Z,78.10
2018-12-14T11:45:30.314Z,77.30
2018-12-14T11:47:57.927Z,77.60
2018-12-14T11:50:25.522Z,77.20
2018-12-14T11:52:53.102Z,77.70
2018-12-14T11:55:20.658Z,77.50
2018-12-14T11:57:48.331Z,78.20
2018-12-14T12:00:15.904Z,77.70
2018-12-14T12:02:43.742Z,78.30
2018-12-14T12:05:11.244Z,78.00
2018-12-14T12:07:40.043Z,77.30
2018-12-14T12:10:09.238Z,77.40
2018-12-14T12:12:37.500Z,77.80
2018-12-14T12:15:05.391Z,77.40
2018-12-14T12:17:33.993Z,77.90
2018-12-14T12:20:01.634Z,77.40
2018-12-14T12:22:29.371Z,77.50
2018-12-14T12:24:56.952Z,77.50
2018-12-14T12:27:24.506Z,77.90
2018-12-14T12:29:52.395Z,77.30
2018-12-14T12:32:20.013Z,77.40
2018-12-14T12:34:47.653Z,77.40
2018-12-14T12:37:15.136Z,77.80
2018-12-14T12:39:42.660Z,77.30
2018-12-14T12:42:10.369Z,77.70
2018-12-14T12:44:37.955Z,78.10
2018-12-14T12:47:05.644Z,77.60
2018-12-14T12:49:33.354Z,78.10
2018-12-14T12:52:00.835Z,77.90
2018-12-14T12:54:28.673Z,77.10
2018-12-14T12:56:56.119Z,77.10
2018-12-14T12:59:24.679Z,77.00
2018-12-14T13:01:53.081Z,76.90
2018-12-14T13:04:20.682Z,76.60
2018-12-14T13:06:48.207Z,77.00
2018-12-14T13:09:15.780Z,77.50
2018-12-14T13:11:43.321Z,77.50
2018-12-14T13:14:11.132Z,77.30
2018-12-14T13:16:38.636Z,77.30
2018-12-14T13:19:06.264Z,77.50
2018-12-14T13:21:33.982Z,77.30
2018-12-14T13:24:01.514Z,77.00
2018-12-14T13:26:29.277Z,77.10
2018-12-14T13:28:56.817Z,77.50
2018-12-14T13:31:24.582Z,77.20
2018-12-14T13:33:52.091Z,77.00
2018-12-14T13:36:19.676Z,77.10
2018-12-14T13:38:47.170Z,76.20
2018-12-14T13:41:14.731Z,76.30
2018-12-14T13:43:42.386Z,75.90
2018-12-14T13:46:10.096Z,76.00
2018-12-14T13:48:37.880Z,75.60
2018-12-14T13:51:06.720Z,76.40
2018-12-14T13:53:34.299Z,76.30
2018-12-14T13:56:01.831Z,77.00
2018-12-14T13:58:29.587Z,76.40
2018-12-14T14:00:58.350Z,75.90
2018-12-14T14:03:26.088Z,76.50
2018-12-14T14:05:53.704Z,76.70
2018-12-14T14:08:21.374Z,76.00
2018-12-14T14:10:48.929Z,76.20
2018-12-14T14:13:16.613Z,76.50
2018-12-14T14:15:50.542Z,77.40
2018-12-14T14:18:13.760Z,77.30
2018-12-14T14:20:41.291Z,76.80
2018-12-14T14:23:08.862Z,76.70
2018-12-14T14:25:36.770Z,76.80
2018-12-14T14:28:04.435Z,76.50
2018-12-14T14:30:31.984Z,76.90
2018-12-14T14:32:59.727Z,77.00
2018-12-14T14:35:27.340Z,76.50
2018-12-14T14:37:57.606Z,77.10
2018-12-14T14:40:24.562Z,76.30
2018-12-14T14:42:52.156Z,76.20
2018-12-14T14:45:19.676Z,76.70
2018-12-14T14:47:47.180Z,76.20
2018-12-14T14:50:14.727Z,76.10
2018-12-14T14:52:42.292Z,75.80
2018-12-14T14:55:10.026Z,75.60
2018-12-14T14:57:37.834Z,75.40
2018-12-14T15:00:06.582Z,75.80
2018-12-14T15:02:36.592Z,76.50
2018-12-14T15:05:05.554Z,76.00
2018-12-14T15:07:33.125Z,76.10
2018-12-14T15:10:00.614Z,76.10
2018-12-14T15:12:28.169Z,76.30
2018-12-14T15:14:55.654Z,76.40
2018-12-14T15:17:23.278Z,76.00
2018-12-14T15:22:50.779Z,76.40
2018-12-14T15:25:18.392Z,76.40
2018-12-14T15:27:46.143Z,76.10
2018-12-14T15:30:13.765Z,76.20
2018-12-14T15:32:42.472Z,76.20
2018-12-14T15:35:10.259Z,76.50
2018-12-14T15:37:37.919Z,76.00
2018-12-14T15:40:07.695Z,76.40
2018-12-14T15:42:35.242Z,76.60
2018-12-14T15:45:03.175Z,76.90
2018-12-14T15:47:30.946Z,76.50
2018-12-14T15:49:58.517Z,76.60
2018-12-14T15:52:26.220Z,76.10
2018-12-14T15:54:53.798Z,76.80
2018-12-14T15:57:21.525Z,76.50
2018-12-14T15:59:49.179Z,76.90
2018-12-14T16:02:16.818Z,76.80
2018-12-14T16:04:44.545Z,76.50
2018-12-14T16:07:12.115Z,77.00
2018-12-14T16:09:39.681Z,77.10
2018-12-14T16:12:07.551Z,76.60
2018-12-14T16:14:35.414Z,76.90
2018-12-14T16:17:03.227Z,77.40
2018-12-14T16:19:31.073Z,77.50
2018-12-14T16:21:58.851Z,77.60
2018-12-14T16:24:26.475Z,77.40
2018-12-14T16:26:54.339Z,77.50
2018-12-14T16:29:22.011Z,78.30
2018-12-14T16:31:49.531Z,77.90
2018-12-14T16:34:17.155Z,77.90
2018-12-14T16:36:44.646Z,78.30
2018-12-14T16:39:12.358Z,77.90
2018-12-14T16:41:41.954Z,78.20
2018-12-14T16:44:09.682Z,77.90
2018-12-14T16:46:37.405Z,78.00
2018-12-14T16:49:05.165Z,78.00
2018-12-14T16:51:32.723Z,77.70
2018-12-14T16:54:01.848Z,77.90
2018-12-14T16:56:29.644Z,78.10
2018-12-14T16:58:57.436Z,77.80
2018-12-14T17:01:25.326Z,77.30
2018-12-14T17:03:53.167Z,77.30
2018-12-14T17:06:21.067Z,77.60
2018-12-14T17:08:48.651Z,77.80
2018-12-14T17:11:16.404Z,77.60
2018-12-14T17:13:43.995Z,77.50
2018-12-14T17:16:11.600Z,77.10
2018-12-14T17:18:39.208Z,77.00
2018-12-14T17:21:06.905Z,77.60
2018-12-14T17:23:34.529Z,77.70
2018-12-14T17:26:02.207Z,77.60
2018-12-14T17:28:29.823Z,78.10
2018-12-14T17:30:57.530Z,78.20
2018-12-14T17:33:25.109Z,78.50
2018-12-14T17:35:54.996Z,78.20
2018-12-14T17:38:24.846Z,78.20
2018-12-14T17:40:54.833Z,77.90
2018-12-14T17:43:22.583Z,78.00
2018-12-14T17:45:50.192Z,78.60
2018-12-14T17:48:17.871Z,78.30
2018-12-14T17:50:45.535Z,77.90
2018-12-14T17:53:13.237Z,79.00
2018-12-14T17:55:40.894Z,78.90
2018-12-14T17:58:08.531Z,79.00
2018-12-14T18:00:36.694Z,79.00
2018-12-14T18:03:04.383Z,79.00
2018-12-14T18:05:34.204Z,78.40
2018-12-14T18:08:01.764Z,78.30
2018-12-14T18:10:29.524Z,78.60
2018-12-14T18:12:57.344Z,78.60
2018-12-14T18:15:24.944Z,78.90
2018-12-14T18:17:52.627Z,79.20
2018-12-14T18:20:20.431Z,78.30
2018-12-14T18:22:48.041Z,79.00
2018-12-14T18:25:18.655Z,78.50
2018-12-14T18:27:46.234Z,78.30
2018-12-14T18:30:13.956Z,78.50
2018-12-14T18:32:41.511Z,79.10
2018-12-14T18:35:09.061Z,79.10
2018-12-14T18:37:36.635Z,79.50
2018-12-14T18:40:06.247Z,79.10
2018-12-14T18:42:33.932Z,79.60
2018-12-14T18:45:01.583Z,78.60
2018-12-14T18:47:29.416Z,79.40
2018-12-14T18:49:57.857Z,79.10
2018-12-14T18:52:25.441Z,78.90
2018-12-14T18:54:53.198Z,78.90
2018-12-14T18:57:20.870Z,79.20
2018-12-14T18:59:48.580Z,79.10
2018-12-14T19:02:16.161Z,79.20
2018-12-14T19:04:43.977Z,78.90
2018-12-14T19:07:11.782Z,79.20
2018-12-14T19:09:39.560Z,79.00
2018-12-14T19:12:07.144Z,79.00
2018-12-14T19:14:34.800Z,79.00
2018-12-14T19:17:02.441Z,79.00
2018-12-14T19:19:30.146Z,79.30
2018-12-14T19:21:58.136Z,79.90
2018-12-14T19:24:25.820Z,79.30
2018-12-14T19:26:53.474Z,79.30
2018-12-14T19:29:21.263Z,79.20
2018-12-14T19:31:49.058Z,79.50
2018-12-14T19:34:16.591Z,79.60
2018-12-14T19:36:44.323Z,79.50
2018-12-14T19:39:12.271Z,79.00
2018-12-14T19:41:40.320Z,79.20
2018-12-14T19:44:07.828Z,79.20
2018-12-14T19:46:35.370Z,79.10
2018-12-14T19:49:03.316Z,79.30
2018-12-14T19:51:30.980Z,79.50
2018-12-14T19:53:58.519Z,78.90
2018-12-14T19:56:26.219Z,78.40
2018-12-14T19:58:53.956Z,78.20
2018-12-14T20:01:21.498Z,79.00
2018-12-14T20:03:49.009Z,79.80
2018-12-14T20:06:16.656Z,79.40
2018-12-14T20:08:44.179Z,79.40
2018-12-14T20:11:11.913Z,79.00
2018-12-14T20:13:39.476Z,78.60
2018-12-14T20:16:12.610Z,78.40
2018-12-14T20:18:36.651Z,78.40
2018-12-14T20:21:05.253Z,78.50
2018-12-14T20:23:32.860Z,78.40
2018-12-14T20:26:00.634Z,78.40
2018-12-14T20:28:28.258Z,78.20
2018-12-14T20:30:56.958Z,77.90
2018-12-14T20:33:24.700Z,78.30
2018-12-14T20:35:52.237Z,78.10
2018-12-14T20:38:19.904Z,78.40
2018-12-14T20:40:47.449Z,78.00
2018-12-14T20:43:15.014Z,77.90
2018-12-14T20:45:42.567Z,78.50
2018-12-14T20:48:10.221Z,79.00
2018-12-14T20:50:37.994Z,79.20
2018-12-14T20:53:05.763Z,78.60
2018-12-14T20:55:33.262Z,78.60
2018-12-14T20:58:00.855Z,79.00
2018-12-14T21:00:29.586Z,79.10
2018-12-14T21:02:57.221Z,79.10
2018-12-14T21:05:24.745Z,78.90
2018-12-14T21:07:52.378Z,78.80
2018-12-14T21:10:19.947Z,79.00
2018-12-14T21:12:47.603Z,79.10
2018-12-14T21:15:15.354Z,78.90
2018-12-14T21:17:42.920Z,79.30
2018-12-14T21:20:10.658Z,79.00
2018-12-14T21:22:38.306Z,78.90
2018-12-14T21:25:06.318Z,78.40
2018-12-14T21:27:34.024Z,78.20
2018-12-14T21:30:03.162Z,78.60
2018-12-14T21:32:31.037Z,78.00
2018-12-14T21:34:58.603Z,78.00
2018-12-14T21:37:26.345Z,78.20
2018-12-14T21:39:53.860Z,78.20
2018-12-14T21:42:21.420Z,78.00
2018-12-14T21:44:48.932Z,78.60
2018-12-14T21:47:16.746Z,78.40
2018-12-14T21:49:44.597Z,78.90
2018-12-14T21:52:12.322Z,78.60
2018-12-14T21:54:39.922Z,79.00
2018-12-14T21:57:07.814Z,79.20
2018-12-14T21:59:35.433Z,78.60
2018-12-14T22:02:03.122Z,78.40
2018-12-14T22:04:31.175Z,78.60
2018-12-14T22:06:59.164Z,78.90
2018-12-14T22:09:26.690Z,78.60
2018-12-14T22:11:54.688Z,78.20
2018-12-14T22:14:22.344Z,78.60
2018-12-14T22:16:49.953Z,78.90
2018-12-14T22:19:17.482Z,78.80
2018-12-14T22:21:45.093Z,78.60
2018-12-14T22:24:12.654Z,79.00
2018-12-14T22:26:40.238Z,79.10
2018-12-14T22:29:07.746Z,79.00
2018-12-14T22:31:35.444Z,78.60
2018-12-14T22:34:03.386Z,78.40
2018-12-14T22:36:30.997Z,78.50
2018-12-14T22:38:58.703Z,78.90
2018-12-14T22:41:26.232Z,78.40
2018-12-14T22:43:54.094Z,78.50
2018-12-14T22:46:21.749Z,78.80
2018-12-14T22:48:49.504Z,78.80
2018-12-14T22:51:17.050Z,78.90
2018-12-14T22:53:44.577Z,78.60
2018-12-14T22:56:12.277Z,78.80
2018-12-14T22:58:39.828Z,78.90
2018-12-14T23:01:07.527Z,78.50
2018-12-14T23:03:36.319Z,78.60
2018-12-14T23:06:04.003Z,78.40
2018-12-14T23:08:31.664Z,78.30
2018-12-14T23:11:00.330Z,78.40
2018-12-14T23:13:28.018Z,78.50
2018-12-14T23:15:55.702Z,78.30
2018-12-14T23:18:23.263Z,78.40
2018-12-14T23:20:50.787Z,78.40
2018-12-14T23:23:18.304Z,78.80
2018-12-14T23:25:46.033Z,78.90
2018-12-14T23:28:13.661Z,78.80
2018-12-14T23:30:41.217Z,78.60
2018-12-14T23:33:08.851Z,78.80
2018-12-14T23:35:36.591Z,78.80
2018-12-14T23:38:04.199Z,78.30
2018-12-14T23:40:32.081Z,78.50
2018-12-14T23:42:59.648Z,78.20
2018-12-14T23:45:27.330Z,78.30
2018-12-14T23:47:54.845Z,78.20
2018-12-14T23:50:22.466Z,78.60
2018-12-14T23:52:49.987Z,78.20
2018-12-14T23:55:17.524Z,78.70
2018-12-14T23:57:45.063Z,78.40
